Terminal Aerodrome Forecast
Issued by NWS

Home | Current Version | Previous Version | Text Only | Print | Product List | Glossary On
Versions: 1 2 3 4 5 6 7 8 9 10 11 12 13
559
FTUS44 KEPZ 222320
TAFLRU
TAF
KLRU 222320Z 2300/2324 28013G22KT P6SM FEW120
     FM230300 31008KT P6SM SKC
     FM231400 36005KT P6SM SKC
     FM232100 26008KT P6SM FEW130=

USA.gov is the U.S. government's official web portal to all federal, state and local government web resources and services.